sensor_id;sensor_type;location;lat;lon;timestamp;P1;durP1;ratioP1;P2;durP2;ratioP2
27833;SDS011;15200;50.570;7.244;2023-07-30T00:02:21;14.25;;;5.37;;
27833;SDS011;15200;50.570;7.244;2023-07-30T00:04:48;9.25;;;4.75;;
27833;SDS011;15200;50.570;7.244;2023-07-30T00:07:15;8.28;;;5.15;;
27833;SDS011;15200;50.570;7.244;2023-07-30T00:09:43;7.40;;;5.55;;
27833;SDS011;15200;50.570;7.244;2023-07-30T00:12:10;9.58;;;5.97;;
27833;SDS011;15200;50.570;7.244;2023-07-30T00:14:37;9.58;;;4.92;;
27833;SDS011;15200;50.570;7.244;2023-07-30T00:17:05;17.45;;;7.08;;
27833;SDS011;15200;50.570;7.244;2023-07-30T00:19:32;12.60;;;6.33;;
27833;SDS011;15200;50.570;7.244;2023-07-30T00:22:00;15.63;;;6.95;;
27833;SDS011;15200;50.570;7.244;2023-07-30T00:24:27;18.45;;;7.20;;
27833;SDS011;15200;50.570;7.244;2023-07-30T00:26:54;16.97;;;6.90;;
27833;SDS011;15200;50.570;7.244;2023-07-30T00:29:22;22.48;;;6.10;;
27833;SDS011;15200;50.570;7.244;2023-07-30T00:31:49;38.20;;;7.50;;
27833;SDS011;15200;50.570;7.244;2023-07-30T00:34:16;27.27;;;6.83;;
27833;SDS011;15200;50.570;7.244;2023-07-30T00:36:43;16.90;;;6.67;;
27833;SDS011;15200;50.570;7.244;2023-07-30T00:39:11;10.65;;;7.60;;
27833;SDS011;15200;50.570;7.244;2023-07-30T00:41:38;20.65;;;7.35;;
27833;SDS011;15200;50.570;7.244;2023-07-30T00:44:05;14.03;;;7.30;;
27833;SDS011;15200;50.570;7.244;2023-07-30T00:46:33;10.00;;;6.62;;
27833;SDS011;15200;50.570;7.244;2023-07-30T00:49:01;15.80;;;7.95;;
27833;SDS011;15200;50.570;7.244;2023-07-30T00:51:29;10.93;;;6.37;;
27833;SDS011;15200;50.570;7.244;2023-07-30T00:53:56;27.17;;;7.83;;
27833;SDS011;15200;50.570;7.244;2023-07-30T00:56:24;20.88;;;8.95;;
27833;SDS011;15200;50.570;7.244;2023-07-30T00:58:51;11.18;;;6.75;;
27833;SDS011;15200;50.570;7.244;2023-07-30T01:01:19;10.45;;;6.67;;
27833;SDS011;15200;50.570;7.244;2023-07-30T01:03:47;7.17;;;5.92;;
27833;SDS011;15200;50.570;7.244;2023-07-30T01:06:14;11.65;;;5.12;;
27833;SDS011;15200;50.570;7.244;2023-07-30T01:08:42;9.78;;;4.78;;
27833;SDS011;15200;50.570;7.244;2023-07-30T01:11:09;10.08;;;5.75;;
27833;SDS011;15200;50.570;7.244;2023-07-30T01:13:37;12.55;;;5.55;;
27833;SDS011;15200;50.570;7.244;2023-07-30T01:16:05;9.90;;;5.62;;
27833;SDS011;15200;50.570;7.244;2023-07-30T01:18:33;9.15;;;5.33;;
27833;SDS011;15200;50.570;7.244;2023-07-30T01:21:00;8.48;;;6.05;;
27833;SDS011;15200;50.570;7.244;2023-07-30T01:23:27;16.60;;;5.95;;
27833;SDS011;15200;50.570;7.244;2023-07-30T01:25:59;13.28;;;5.90;;
27833;SDS011;15200;50.570;7.244;2023-07-30T01:28:23;10.35;;;5.15;;
27833;SDS011;15200;50.570;7.244;2023-07-30T01:30:51;8.20;;;5.25;;
27833;SDS011;15200;50.570;7.244;2023-07-30T01:33:18;6.25;;;5.08;;
27833;SDS011;15200;50.570;7.244;2023-07-30T01:35:45;6.55;;;5.37;;
27833;SDS011;15200;50.570;7.244;2023-07-30T01:38:13;6.72;;;5.05;;
27833;SDS011;15200;50.570;7.244;2023-07-30T01:40:40;9.35;;;5.55;;
27833;SDS011;15200;50.570;7.244;2023-07-30T01:43:08;10.32;;;5.22;;
27833;SDS011;15200;50.570;7.244;2023-07-30T01:45:35;8.98;;;5.35;;
27833;SDS011;15200;50.570;7.244;2023-07-30T01:48:02;7.62;;;5.10;;
27833;SDS011;15200;50.570;7.244;2023-07-30T01:50:30;7.58;;;5.22;;
27833;SDS011;15200;50.570;7.244;2023-07-30T01:52:57;8.75;;;5.00;;
27833;SDS011;15200;50.570;7.244;2023-07-30T01:55:24;8.60;;;4.75;;
27833;SDS011;15200;50.570;7.244;2023-07-30T01:57:51;9.05;;;5.40;;
27833;SDS011;15200;50.570;7.244;2023-07-30T02:00:19;11.48;;;5.40;;
27833;SDS011;15200;50.570;7.244;2023-07-30T02:02:46;6.83;;;4.53;;
27833;SDS011;15200;50.570;7.244;2023-07-30T02:05:15;9.43;;;4.85;;
27833;SDS011;15200;50.570;7.244;2023-07-30T02:07:42;9.28;;;5.33;;
27833;SDS011;15200;50.570;7.244;2023-07-30T02:10:09;7.87;;;5.67;;
27833;SDS011;15200;50.570;7.244;2023-07-30T02:12:37;16.00;;;5.35;;
27833;SDS011;15200;50.570;7.244;2023-07-30T02:15:04;13.53;;;5.37;;
27833;SDS011;15200;50.570;7.244;2023-07-30T02:17:32;8.75;;;5.22;;
27833;SDS011;15200;50.570;7.244;2023-07-30T02:19:59;12.23;;;5.47;;
27833;SDS011;15200;50.570;7.244;2023-07-30T02:22:26;18.15;;;5.20;;
27833;SDS011;15200;50.570;7.244;2023-07-30T02:24:53;8.85;;;5.45;;
27833;SDS011;15200;50.570;7.244;2023-07-30T02:27:22;7.35;;;5.67;;
27833;SDS011;15200;50.570;7.244;2023-07-30T02:29:50;9.05;;;5.33;;
27833;SDS011;15200;50.570;7.244;2023-07-30T02:32:17;9.55;;;4.95;;
27833;SDS011;15200;50.570;7.244;2023-07-30T02:34:44;9.20;;;4.60;;
27833;SDS011;15200;50.570;7.244;2023-07-30T02:37:12;6.35;;;4.53;;
27833;SDS011;15200;50.570;7.244;2023-07-30T02:39:39;5.17;;;4.08;;
27833;SDS011;15200;50.570;7.244;2023-07-30T02:42:07;7.33;;;3.50;;
27833;SDS011;15200;50.570;7.244;2023-07-30T02:44:34;10.15;;;3.33;;
27833;SDS011;15200;50.570;7.244;2023-07-30T02:47:02;10.20;;;3.22;;
27833;SDS011;15200;50.570;7.244;2023-07-30T02:49:29;5.47;;;3.33;;
27833;SDS011;15200;50.570;7.244;2023-07-30T02:51:56;8.93;;;3.02;;
27833;SDS011;15200;50.570;7.244;2023-07-30T02:54:23;8.75;;;3.45;;
27833;SDS011;15200;50.570;7.244;2023-07-30T02:56:51;8.33;;;3.55;;
27833;SDS011;15200;50.570;7.244;2023-07-30T02:59:19;7.35;;;3.52;;
27833;SDS011;15200;50.570;7.244;2023-07-30T03:01:46;9.13;;;3.70;;
27833;SDS011;15200;50.570;7.244;2023-07-30T03:04:14;10.98;;;3.67;;
27833;SDS011;15200;50.570;7.244;2023-07-30T03:06:41;8.13;;;4.05;;
27833;SDS011;15200;50.570;7.244;2023-07-30T03:09:08;6.70;;;3.47;;
27833;SDS011;15200;50.570;7.244;2023-07-30T03:11:36;8.50;;;3.58;;
27833;SDS011;15200;50.570;7.244;2023-07-30T03:14:03;6.60;;;3.35;;
27833;SDS011;15200;50.570;7.244;2023-07-30T03:16:30;6.33;;;3.33;;
27833;SDS011;15200;50.570;7.244;2023-07-30T03:18:58;8.08;;;3.45;;
27833;SDS011;15200;50.570;7.244;2023-07-30T03:21:25;5.20;;;3.25;;
27833;SDS011;15200;50.570;7.244;2023-07-30T03:23:52;7.55;;;3.83;;
27833;SDS011;15200;50.570;7.244;2023-07-30T03:26:19;11.35;;;2.83;;
27833;SDS011;15200;50.570;7.244;2023-07-30T03:28:47;4.70;;;3.02;;
27833;SDS011;15200;50.570;7.244;2023-07-30T03:31:14;5.15;;;2.58;;
27833;SDS011;15200;50.570;7.244;2023-07-30T03:33:41;5.87;;;3.10;;
27833;SDS011;15200;50.570;7.244;2023-07-30T03:36:10;4.78;;;2.60;;
27833;SDS011;15200;50.570;7.244;2023-07-30T03:38:40;7.40;;;2.40;;
27833;SDS011;15200;50.570;7.244;2023-07-30T03:41:07;5.10;;;2.87;;
27833;SDS011;15200;50.570;7.244;2023-07-30T03:43:34;4.37;;;3.12;;
27833;SDS011;15200;50.570;7.244;2023-07-30T03:46:02;8.15;;;2.95;;
27833;SDS011;15200;50.570;7.244;2023-07-30T03:48:29;5.75;;;2.60;;
27833;SDS011;15200;50.570;7.244;2023-07-30T03:50:56;5.08;;;2.80;;
27833;SDS011;15200;50.570;7.244;2023-07-30T03:53:24;5.97;;;3.15;;
27833;SDS011;15200;50.570;7.244;2023-07-30T03:55:51;3.72;;;3.00;;
27833;SDS011;15200;50.570;7.244;2023-07-30T03:58:18;4.40;;;2.83;;
27833;SDS011;15200;50.570;7.244;2023-07-30T04:00:46;3.77;;;2.47;;
27833;SDS011;15200;50.570;7.244;2023-07-30T04:03:13;4.72;;;2.70;;
27833;SDS011;15200;50.570;7.244;2023-07-30T04:05:40;3.08;;;2.55;;
27833;SDS011;15200;50.570;7.244;2023-07-30T04:08:08;14.68;;;2.98;;
27833;SDS011;15200;50.570;7.244;2023-07-30T04:10:35;8.50;;;3.37;;
27833;SDS011;15200;50.570;7.244;2023-07-30T04:13:02;5.70;;;2.58;;
27833;SDS011;15200;50.570;7.244;2023-07-30T04:15:29;4.75;;;2.67;;
27833;SDS011;15200;50.570;7.244;2023-07-30T04:17:57;5.58;;;2.62;;
27833;SDS011;15200;50.570;7.244;2023-07-30T04:20:24;6.72;;;3.08;;
27833;SDS011;15200;50.570;7.244;2023-07-30T04:22:51;7.85;;;2.65;;
27833;SDS011;15200;50.570;7.244;2023-07-30T04:25:19;7.70;;;2.50;;
27833;SDS011;15200;50.570;7.244;2023-07-30T04:27:46;8.73;;;3.17;;
27833;SDS011;15200;50.570;7.244;2023-07-30T04:30:13;4.72;;;2.87;;
27833;SDS011;15200;50.570;7.244;2023-07-30T04:32:41;6.50;;;2.72;;
27833;SDS011;15200;50.570;7.244;2023-07-30T04:35:08;6.72;;;2.98;;
27833;SDS011;15200;50.570;7.244;2023-07-30T04:37:35;12.88;;;3.62;;
27833;SDS011;15200;50.570;7.244;2023-07-30T04:40:03;5.33;;;3.50;;
27833;SDS011;15200;50.570;7.244;2023-07-30T04:42:30;3.95;;;2.77;;
27833;SDS011;15200;50.570;7.244;2023-07-30T04:44:58;12.23;;;3.37;;
27833;SDS011;15200;50.570;7.244;2023-07-30T04:47:25;3.83;;;2.98;;
27833;SDS011;15200;50.570;7.244;2023-07-30T04:49:52;7.28;;;3.22;;
27833;SDS011;15200;50.570;7.244;2023-07-30T04:52:20;8.68;;;3.10;;
27833;SDS011;15200;50.570;7.244;2023-07-30T04:54:47;9.65;;;3.10;;
27833;SDS011;15200;50.570;7.244;2023-07-30T04:57:14;5.60;;;2.95;;
27833;SDS011;15200;50.570;7.244;2023-07-30T04:59:42;4.20;;;2.92;;
27833;SDS011;15200;50.570;7.244;2023-07-30T05:02:09;6.85;;;2.98;;
27833;SDS011;15200;50.570;7.244;2023-07-30T05:04:37;6.92;;;2.90;;
27833;SDS011;15200;50.570;7.244;2023-07-30T05:07:04;5.53;;;3.00;;
27833;SDS011;15200;50.570;7.244;2023-07-30T05:09:32;4.22;;;2.50;;
27833;SDS011;15200;50.570;7.244;2023-07-30T05:11:59;4.25;;;2.77;;
27833;SDS011;15200;50.570;7.244;2023-07-30T05:14:26;8.55;;;3.42;;
27833;SDS011;15200;50.570;7.244;2023-07-30T05:16:54;9.20;;;3.20;;
27833;SDS011;15200;50.570;7.244;2023-07-30T05:19:21;5.72;;;2.85;;
27833;SDS011;15200;50.570;7.244;2023-07-30T05:21:48;4.80;;;2.77;;
27833;SDS011;15200;50.570;7.244;2023-07-30T05:24:15;8.10;;;2.83;;
27833;SDS011;15200;50.570;7.244;2023-07-30T05:26:43;6.45;;;3.00;;
27833;SDS011;15200;50.570;7.244;2023-07-30T05:29:10;6.95;;;2.80;;
27833;SDS011;15200;50.570;7.244;2023-07-30T05:31:37;9.55;;;2.80;;
27833;SDS011;15200;50.570;7.244;2023-07-30T05:34:05;5.20;;;2.77;;
27833;SDS011;15200;50.570;7.244;2023-07-30T05:36:32;6.67;;;2.87;;
27833;SDS011;15200;50.570;7.244;2023-07-30T05:38:59;4.15;;;2.52;;
27833;SDS011;15200;50.570;7.244;2023-07-30T05:41:27;6.90;;;3.37;;
27833;SDS011;15200;50.570;7.244;2023-07-30T05:43:54;5.85;;;3.27;;
27833;SDS011;15200;50.570;7.244;2023-07-30T05:46:21;7.95;;;2.98;;
27833;SDS011;15200;50.570;7.244;2023-07-30T05:48:49;4.05;;;2.75;;
27833;SDS011;15200;50.570;7.244;2023-07-30T05:51:16;2.90;;;2.70;;
27833;SDS011;15200;50.570;7.244;2023-07-30T05:53:43;7.70;;;2.55;;
27833;SDS011;15200;50.570;7.244;2023-07-30T05:56:10;3.77;;;2.45;;
27833;SDS011;15200;50.570;7.244;2023-07-30T05:58:39;7.30;;;2.30;;
27833;SDS011;15200;50.570;7.244;2023-07-30T06:01:07;5.30;;;1.85;;
27833;SDS011;15200;50.570;7.244;2023-07-30T06:03:34;2.37;;;2.10;;
27833;SDS011;15200;50.570;7.244;2023-07-30T06:06:01;2.35;;;1.62;;
27833;SDS011;15200;50.570;7.244;2023-07-30T06:08:29;5.75;;;2.22;;
27833;SDS011;15200;50.570;7.244;2023-07-30T06:11:00;4.42;;;1.75;;
27833;SDS011;15200;50.570;7.244;2023-07-30T06:13:25;6.35;;;1.62;;
27833;SDS011;15200;50.570;7.244;2023-07-30T06:15:53;4.55;;;2.30;;
27833;SDS011;15200;50.570;7.244;2023-07-30T06:18:21;4.33;;;2.10;;
27833;SDS011;15200;50.570;7.244;2023-07-30T06:20:48;2.22;;;1.80;;
27833;SDS011;15200;50.570;7.244;2023-07-30T06:23:16;5.62;;;2.12;;
27833;SDS011;15200;50.570;7.244;2023-07-30T06:25:43;9.58;;;2.40;;
27833;SDS011;15200;50.570;7.244;2023-07-30T06:28:11;10.53;;;2.60;;
27833;SDS011;15200;50.570;7.244;2023-07-30T06:30:39;11.03;;;2.08;;
27833;SDS011;15200;50.570;7.244;2023-07-30T06:33:06;5.17;;;2.08;;
27833;SDS011;15200;50.570;7.244;2023-07-30T06:35:33;4.20;;;1.72;;
27833;SDS011;15200;50.570;7.244;2023-07-30T06:38:01;3.05;;;1.92;;
27833;SDS011;15200;50.570;7.244;2023-07-30T06:40:28;7.35;;;2.52;;
27833;SDS011;15200;50.570;7.244;2023-07-30T06:42:55;6.50;;;2.37;;
27833;SDS011;15200;50.570;7.244;2023-07-30T06:45:23;4.75;;;2.17;;
27833;SDS011;15200;50.570;7.244;2023-07-30T06:47:50;4.53;;;2.37;;
27833;SDS011;15200;50.570;7.244;2023-07-30T06:50:17;7.60;;;2.25;;
27833;SDS011;15200;50.570;7.244;2023-07-30T06:52:44;7.58;;;2.50;;
27833;SDS011;15200;50.570;7.244;2023-07-30T06:55:12;7.37;;;2.40;;
27833;SDS011;15200;50.570;7.244;2023-07-30T06:57:39;4.22;;;2.22;;
27833;SDS011;15200;50.570;7.244;2023-07-30T07:00:07;6.78;;;2.12;;
27833;SDS011;15200;50.570;7.244;2023-07-30T07:02:34;7.83;;;2.30;;
27833;SDS011;15200;50.570;7.244;2023-07-30T07:05:03;4.72;;;2.20;;
27833;SDS011;15200;50.570;7.244;2023-07-30T07:07:31;4.55;;;2.30;;
27833;SDS011;15200;50.570;7.244;2023-07-30T07:09:58;8.83;;;2.37;;
27833;SDS011;15200;50.570;7.244;2023-07-30T07:12:26;9.45;;;2.60;;
27833;SDS011;15200;50.570;7.244;2023-07-30T07:14:53;10.48;;;2.30;;
27833;SDS011;15200;50.570;7.244;2023-07-30T07:17:22;5.60;;;2.47;;
27833;SDS011;15200;50.570;7.244;2023-07-30T07:19:49;5.55;;;1.82;;
27833;SDS011;15200;50.570;7.244;2023-07-30T07:22:17;14.05;;;2.37;;
27833;SDS011;15200;50.570;7.244;2023-07-30T07:24:44;7.15;;;2.60;;
27833;SDS011;15200;50.570;7.244;2023-07-30T07:27:12;4.65;;;2.58;;
27833;SDS011;15200;50.570;7.244;2023-07-30T07:29:39;7.08;;;2.42;;
27833;SDS011;15200;50.570;7.244;2023-07-30T07:32:07;5.72;;;2.22;;
27833;SDS011;15200;50.570;7.244;2023-07-30T07:34:34;10.82;;;2.75;;
27833;SDS011;15200;50.570;7.244;2023-07-30T07:37:02;4.42;;;2.10;;
27833;SDS011;15200;50.570;7.244;2023-07-30T07:39:29;8.00;;;2.22;;
27833;SDS011;15200;50.570;7.244;2023-07-30T07:41:56;10.68;;;2.42;;
27833;SDS011;15200;50.570;7.244;2023-07-30T07:44:24;7.42;;;2.25;;
27833;SDS011;15200;50.570;7.244;2023-07-30T07:46:51;4.45;;;1.80;;
27833;SDS011;15200;50.570;7.244;2023-07-30T07:49:19;3.55;;;1.15;;
27833;SDS011;15200;50.570;7.244;2023-07-30T07:51:48;9.45;;;1.60;;
27833;SDS011;15200;50.570;7.244;2023-07-30T07:54:15;3.58;;;1.30;;
27833;SDS011;15200;50.570;7.244;2023-07-30T07:56:42;4.95;;;1.25;;
27833;SDS011;15200;50.570;7.244;2023-07-30T07:59:10;2.92;;;0.98;;
27833;SDS011;15200;50.570;7.244;2023-07-30T08:01:37;4.85;;;1.45;;
27833;SDS011;15200;50.570;7.244;2023-07-30T08:04:04;2.33;;;1.15;;
27833;SDS011;15200;50.570;7.244;2023-07-30T08:06:32;3.10;;;1.10;;
27833;SDS011;15200;50.570;7.244;2023-07-30T08:08:59;4.03;;;1.00;;
27833;SDS011;15200;50.570;7.244;2023-07-30T08:11:26;4.08;;;1.22;;
27833;SDS011;15200;50.570;7.244;2023-07-30T08:13:54;3.35;;;0.80;;
27833;SDS011;15200;50.570;7.244;2023-07-30T08:16:21;3.05;;;1.20;;
27833;SDS011;15200;50.570;7.244;2023-07-30T08:18:48;1.85;;;0.93;;
27833;SDS011;15200;50.570;7.244;2023-07-30T08:21:16;2.62;;;0.98;;
27833;SDS011;15200;50.570;7.244;2023-07-30T08:23:45;4.83;;;1.02;;
27833;SDS011;15200;50.570;7.244;2023-07-30T08:26:13;5.50;;;1.20;;
27833;SDS011;15200;50.570;7.244;2023-07-30T08:28:40;4.47;;;1.00;;
27833;SDS011;15200;50.570;7.244;2023-07-30T08:31:07;3.15;;;0.90;;
27833;SDS011;15200;50.570;7.244;2023-07-30T08:33:35;3.05;;;1.30;;
27833;SDS011;15200;50.570;7.244;2023-07-30T08:36:02;3.45;;;1.00;;
27833;SDS011;15200;50.570;7.244;2023-07-30T08:38:29;3.33;;;1.27;;
27833;SDS011;15200;50.570;7.244;2023-07-30T08:40:57;2.83;;;1.12;;
27833;SDS011;15200;50.570;7.244;2023-07-30T08:43:24;2.85;;;0.72;;
27833;SDS011;15200;50.570;7.244;2023-07-30T08:45:51;1.52;;;0.90;;
27833;SDS011;15200;50.570;7.244;2023-07-30T08:48:19;3.52;;;1.00;;
27833;SDS011;15200;50.570;7.244;2023-07-30T08:50:47;3.52;;;1.02;;
27833;SDS011;15200;50.570;7.244;2023-07-30T08:53:15;4.28;;;1.20;;
27833;SDS011;15200;50.570;7.244;2023-07-30T08:55:42;3.47;;;0.80;;
27833;SDS011;15200;50.570;7.244;2023-07-30T08:58:10;2.35;;;0.80;;
27833;SDS011;15200;50.570;7.244;2023-07-30T09:00:38;2.58;;;0.90;;
27833;SDS011;15200;50.570;7.244;2023-07-30T09:03:06;2.75;;;0.93;;
27833;SDS011;15200;50.570;7.244;2023-07-30T09:05:34;4.03;;;0.98;;
27833;SDS011;15200;50.570;7.244;2023-07-30T09:08:01;3.30;;;1.20;;
27833;SDS011;15200;50.570;7.244;2023-07-30T09:10:29;3.52;;;1.02;;
27833;SDS011;15200;50.570;7.244;2023-07-30T09:12:56;5.15;;;1.07;;
27833;SDS011;15200;50.570;7.244;2023-07-30T09:15:31;4.95;;;0.80;;
27833;SDS011;15200;50.570;7.244;2023-07-30T09:17:59;3.47;;;1.00;;
27833;SDS011;15200;50.570;7.244;2023-07-30T09:20:27;4.22;;;1.42;;
27833;SDS011;15200;50.570;7.244;2023-07-30T09:22:57;3.27;;;1.12;;
27833;SDS011;15200;50.570;7.244;2023-07-30T09:25:25;4.08;;;1.20;;
27833;SDS011;15200;50.570;7.244;2023-07-30T09:27:52;3.90;;;1.17;;
27833;SDS011;15200;50.570;7.244;2023-07-30T09:30:22;4.72;;;1.30;;
27833;SDS011;15200;50.570;7.244;2023-07-30T09:32:51;1.75;;;1.00;;
27833;SDS011;15200;50.570;7.244;2023-07-30T09:35:19;4.20;;;1.25;;
27833;SDS011;15200;50.570;7.244;2023-07-30T09:37:47;3.87;;;1.10;;
27833;SDS011;15200;50.570;7.244;2023-07-30T09:40:14;5.37;;;1.20;;
27833;SDS011;15200;50.570;7.244;2023-07-30T09:42:43;4.50;;;1.25;;
27833;SDS011;15200;50.570;7.244;2023-07-30T09:45:21;3.92;;;1.00;;
27833;SDS011;15200;50.570;7.244;2023-07-30T09:47:46;6.60;;;1.30;;
27833;SDS011;15200;50.570;7.244;2023-07-30T09:50:13;4.80;;;1.50;;
27833;SDS011;15200;50.570;7.244;2023-07-30T09:52:42;5.58;;;1.42;;
27833;SDS011;15200;50.570;7.244;2023-07-30T09:55:10;3.17;;;1.50;;
27833;SDS011;15200;50.570;7.244;2023-07-30T09:57:38;4.35;;;1.17;;
27833;SDS011;15200;50.570;7.244;2023-07-30T10:00:07;4.97;;;1.35;;
27833;SDS011;15200;50.570;7.244;2023-07-30T10:02:38;3.87;;;1.12;;
27833;SDS011;15200;50.570;7.244;2023-07-30T10:05:17;4.10;;;1.32;;
27833;SDS011;15200;50.570;7.244;2023-07-30T10:07:55;2.85;;;1.17;;
27833;SDS011;15200;50.570;7.244;2023-07-30T10:10:22;2.62;;;1.35;;
27833;SDS011;15200;50.570;7.244;2023-07-30T10:12:51;2.90;;;1.20;;
27833;SDS011;15200;50.570;7.244;2023-07-30T10:15:19;8.35;;;1.57;;
27833;SDS011;15200;50.570;7.244;2023-07-30T10:17:50;4.58;;;1.35;;
27833;SDS011;15200;50.570;7.244;2023-07-30T10:20:23;3.15;;;1.05;;
27833;SDS011;15200;50.570;7.244;2023-07-30T10:22:47;5.92;;;1.40;;
27833;SDS011;15200;50.570;7.244;2023-07-30T10:25:16;7.08;;;1.67;;
27833;SDS011;15200;50.570;7.244;2023-07-30T10:27:43;9.70;;;1.40;;
27833;SDS011;15200;50.570;7.244;2023-07-30T10:30:13;4.10;;;1.12;;
27833;SDS011;15200;50.570;7.244;2023-07-30T10:33:03;3.98;;;1.42;;
27833;SDS011;15200;50.570;7.244;2023-07-30T10:35:09;5.80;;;1.42;;
27833;SDS011;15200;50.570;7.244;2023-07-30T10:37:44;5.20;;;1.50;;
27833;SDS011;15200;50.570;7.244;2023-07-30T10:40:15;6.30;;;1.07;;
27833;SDS011;15200;50.570;7.244;2023-07-30T10:42:36;6.83;;;1.75;;
27833;SDS011;15200;50.570;7.244;2023-07-30T10:45:06;4.83;;;1.32;;
27833;SDS011;15200;50.570;7.244;2023-07-30T10:47:34;4.58;;;1.40;;
27833;SDS011;15200;50.570;7.244;2023-07-30T10:50:02;3.17;;;1.37;;
27833;SDS011;15200;50.570;7.244;2023-07-30T10:52:29;4.60;;;1.30;;
27833;SDS011;15200;50.570;7.244;2023-07-30T10:54:59;4.70;;;1.50;;
27833;SDS011;15200;50.570;7.244;2023-07-30T10:57:30;6.10;;;2.02;;
27833;SDS011;15200;50.570;7.244;2023-07-30T10:59:59;4.62;;;1.22;;
27833;SDS011;15200;50.570;7.244;2023-07-30T11:02:27;5.35;;;1.30;;
27833;SDS011;15200;50.570;7.244;2023-07-30T11:04:56;7.60;;;2.10;;
27833;SDS011;15200;50.570;7.244;2023-07-30T11:07:23;4.30;;;1.20;;
27833;SDS011;15200;50.570;7.244;2023-07-30T11:10:00;7.22;;;1.45;;
27833;SDS011;15200;50.570;7.244;2023-07-30T11:12:29;5.42;;;1.55;;
27833;SDS011;15200;50.570;7.244;2023-07-30T11:15:00;4.90;;;1.20;;
27833;SDS011;15200;50.570;7.244;2023-07-30T11:17:27;3.90;;;1.00;;
27833;SDS011;15200;50.570;7.244;2023-07-30T11:19:54;3.80;;;1.10;;
27833;SDS011;15200;50.570;7.244;2023-07-30T11:22:31;5.30;;;1.35;;
27833;SDS011;15200;50.570;7.244;2023-07-30T11:24:59;4.47;;;1.27;;
27833;SDS011;15200;50.570;7.244;2023-07-30T11:27:28;5.25;;;1.25;;
27833;SDS011;15200;50.570;7.244;2023-07-30T11:29:56;4.17;;;1.32;;
27833;SDS011;15200;50.570;7.244;2023-07-30T11:32:23;5.45;;;1.70;;
27833;SDS011;15200;50.570;7.244;2023-07-30T11:34:52;2.60;;;1.32;;
27833;SDS011;15200;50.570;7.244;2023-07-30T11:37:20;3.50;;;1.52;;
27833;SDS011;15200;50.570;7.244;2023-07-30T11:39:48;3.47;;;1.30;;
27833;SDS011;15200;50.570;7.244;2023-07-30T11:42:16;6.85;;;1.37;;
27833;SDS011;15200;50.570;7.244;2023-07-30T11:44:43;7.10;;;1.45;;
27833;SDS011;15200;50.570;7.244;2023-07-30T11:47:10;4.30;;;1.20;;
27833;SDS011;15200;50.570;7.244;2023-07-30T11:49:38;5.80;;;1.30;;
27833;SDS011;15200;50.570;7.244;2023-07-30T11:52:08;2.92;;;1.27;;
27833;SDS011;15200;50.570;7.244;2023-07-30T11:54:36;4.03;;;1.15;;
27833;SDS011;15200;50.570;7.244;2023-07-30T11:57:03;3.25;;;1.22;;
27833;SDS011;15200;50.570;7.244;2023-07-30T11:59:31;3.58;;;1.02;;
27833;SDS011;15200;50.570;7.244;2023-07-30T12:01:58;6.87;;;1.10;;
27833;SDS011;15200;50.570;7.244;2023-07-30T12:04:29;4.95;;;1.40;;
27833;SDS011;15200;50.570;7.244;2023-07-30T12:06:55;3.55;;;1.15;;
27833;SDS011;15200;50.570;7.244;2023-07-30T12:09:23;3.98;;;1.12;;
27833;SDS011;15200;50.570;7.244;2023-07-30T12:11:53;2.15;;;0.95;;
27833;SDS011;15200;50.570;7.244;2023-07-30T12:14:24;3.27;;;1.02;;
27833;SDS011;15200;50.570;7.244;2023-07-30T12:16:54;4.05;;;1.15;;
27833;SDS011;15200;50.570;7.244;2023-07-30T12:19:21;2.92;;;1.40;;
27833;SDS011;15200;50.570;7.244;2023-07-30T12:21:48;3.98;;;1.30;;
27833;SDS011;15200;50.570;7.244;2023-07-30T12:24:16;3.95;;;1.10;;
27833;SDS011;15200;50.570;7.244;2023-07-30T12:26:43;6.37;;;1.17;;
27833;SDS011;15200;50.570;7.244;2023-07-30T12:29:10;6.22;;;1.25;;
27833;SDS011;15200;50.570;7.244;2023-07-30T12:31:38;5.17;;;1.10;;
27833;SDS011;15200;50.570;7.244;2023-07-30T12:34:05;2.15;;;0.80;;
27833;SDS011;15200;50.570;7.244;2023-07-30T12:36:32;4.67;;;0.90;;
27833;SDS011;15200;50.570;7.244;2023-07-30T12:38:59;6.97;;;1.22;;
27833;SDS011;15200;50.570;7.244;2023-07-30T12:41:27;3.47;;;0.90;;
27833;SDS011;15200;50.570;7.244;2023-07-30T12:43:55;2.42;;;1.10;;
27833;SDS011;15200;50.570;7.244;2023-07-30T12:46:26;3.33;;;1.37;;
27833;SDS011;15200;50.570;7.244;2023-07-30T12:48:55;3.35;;;0.68;;
27833;SDS011;15200;50.570;7.244;2023-07-30T12:51:22;3.02;;;1.37;;
27833;SDS011;15200;50.570;7.244;2023-07-30T12:53:50;3.55;;;1.02;;
27833;SDS011;15200;50.570;7.244;2023-07-30T12:56:17;4.95;;;1.17;;
27833;SDS011;15200;50.570;7.244;2023-07-30T12:58:44;3.90;;;1.20;;
27833;SDS011;15200;50.570;7.244;2023-07-30T13:01:11;5.62;;;1.20;;
27833;SDS011;15200;50.570;7.244;2023-07-30T13:03:39;3.00;;;0.82;;
27833;SDS011;15200;50.570;7.244;2023-07-30T13:06:08;7.95;;;1.10;;
27833;SDS011;15200;50.570;7.244;2023-07-30T13:08:35;4.28;;;1.12;;
27833;SDS011;15200;50.570;7.244;2023-07-30T13:11:02;2.85;;;0.80;;
27833;SDS011;15200;50.570;7.244;2023-07-30T13:13:30;4.28;;;1.05;;
27833;SDS011;15200;50.570;7.244;2023-07-30T13:15:57;2.15;;;0.90;;
27833;SDS011;15200;50.570;7.244;2023-07-30T13:18:27;3.10;;;1.10;;
27833;SDS011;15200;50.570;7.244;2023-07-30T13:20:54;5.90;;;0.98;;
27833;SDS011;15200;50.570;7.244;2023-07-30T13:23:21;6.85;;;1.12;;
27833;SDS011;15200;50.570;7.244;2023-07-30T13:25:50;2.72;;;1.00;;
27833;SDS011;15200;50.570;7.244;2023-07-30T13:28:18;2.65;;;1.00;;
27833;SDS011;15200;50.570;7.244;2023-07-30T13:30:45;3.12;;;0.70;;
27833;SDS011;15200;50.570;7.244;2023-07-30T13:33:12;5.55;;;1.25;;
27833;SDS011;15200;50.570;7.244;2023-07-30T13:35:40;3.35;;;1.20;;
27833;SDS011;15200;50.570;7.244;2023-07-30T13:38:07;3.00;;;1.37;;
27833;SDS011;15200;50.570;7.244;2023-07-30T13:40:34;2.00;;;1.10;;
27833;SDS011;15200;50.570;7.244;2023-07-30T13:43:02;1.47;;;0.80;;
27833;SDS011;15200;50.570;7.244;2023-07-30T13:45:29;1.98;;;1.00;;
27833;SDS011;15200;50.570;7.244;2023-07-30T13:47:56;4.87;;;1.00;;
27833;SDS011;15200;50.570;7.244;2023-07-30T13:50:24;1.47;;;0.90;;
27833;SDS011;15200;50.570;7.244;2023-07-30T13:52:51;2.42;;;0.90;;
27833;SDS011;15200;50.570;7.244;2023-07-30T13:55:18;2.45;;;1.00;;
27833;SDS011;15200;50.570;7.244;2023-07-30T13:57:46;3.20;;;1.22;;
27833;SDS011;15200;50.570;7.244;2023-07-30T14:00:13;3.83;;;0.98;;
27833;SDS011;15200;50.570;7.244;2023-07-30T14:02:41;3.27;;;1.02;;
27833;SDS011;15200;50.570;7.244;2023-07-30T14:05:09;2.22;;;1.02;;
27833;SDS011;15200;50.570;7.244;2023-07-30T14:07:36;4.85;;;1.30;;
27833;SDS011;15200;50.570;7.244;2023-07-30T14:10:04;1.95;;;0.90;;
27833;SDS011;15200;50.570;7.244;2023-07-30T14:12:31;4.37;;;1.40;;
27833;SDS011;15200;50.570;7.244;2023-07-30T14:14:59;2.87;;;1.00;;
27833;SDS011;15200;50.570;7.244;2023-07-30T14:17:26;2.95;;;1.17;;
27833;SDS011;15200;50.570;7.244;2023-07-30T14:19:53;4.70;;;0.90;;
27833;SDS011;15200;50.570;7.244;2023-07-30T14:22:22;3.92;;;1.20;;
27833;SDS011;15200;50.570;7.244;2023-07-30T14:24:49;5.80;;;1.10;;
27833;SDS011;15200;50.570;7.244;2023-07-30T14:27:17;3.08;;;1.00;;
27833;SDS011;15200;50.570;7.244;2023-07-30T14:29:44;4.58;;;1.10;;
27833;SDS011;15200;50.570;7.244;2023-07-30T14:32:11;2.35;;;0.90;;
27833;SDS011;15200;50.570;7.244;2023-07-30T14:34:39;3.98;;;1.20;;
27833;SDS011;15200;50.570;7.244;2023-07-30T14:37:06;2.70;;;1.00;;
27833;SDS011;15200;50.570;7.244;2023-07-30T14:39:33;2.70;;;1.00;;
27833;SDS011;15200;50.570;7.244;2023-07-30T14:42:01;2.22;;;1.00;;
27833;SDS011;15200;50.570;7.244;2023-07-30T14:44:28;5.20;;;1.12;;
27833;SDS011;15200;50.570;7.244;2023-07-30T14:46:55;2.17;;;0.98;;
27833;SDS011;15200;50.570;7.244;2023-07-30T14:49:24;5.83;;;1.20;;